Flight Track Log - Related Links

Times and Time Zones

All times are in EDT time to prevent confusion due to time zone crossing. See the N3062R flight status page for this flight to view local times or setup timezone preferences in your user account.

Time Position Orientation Groundspeed Altitude Reporting Facility
EDT Latitude Longitude Course Direction KTS MPH feet Rate Location/Type
Fri 05:53:00 PM 34.1176 -81.2669 323° Northwest  Level Estimated
Fri 05:54:00 PM 34.1474 -81.2916 325° Northwest  Level FlightAware Approximate
Fri 05:55:00 PM 34.1771 -81.3163 325° Northwest  Level FlightAware Approximate
Fri 05:56:00 PM 34.2068 -81.3411 325° Northwest  Level FlightAware Approximate
Fri 05:57:00 PM 34.2365 -81.3659 325° Northwest  Level FlightAware Approximate
Fri 05:58:00 PM 34.2663 -81.3906 326° Northwest  Level Estimated
Fri 05:59:00 PM 34.2962 -81.4149 326° Northwest  Level FlightAware Approximate
Fri 06:00:00 PM 34.3261 -81.4393 326° Northwest  Level FlightAware Approximate
Fri 06:01:00 PM 34.3560 -81.4638 326° Northwest  Level FlightAware Approximate
Fri 06:02:00 PM 34.3860 -81.4882 326° Northwest  Level FlightAware Approximate
Fri 06:03:00 PM 34.4159 -81.5126 326° Northwest  Level FlightAware Approximate
Fri 06:04:00 PM 34.4458 -81.5371 326° Northwest  Level FlightAware Approximate
Fri 06:05:00 PM 34.4757 -81.5616 326° Northwest  Level FlightAware Approximate
Fri 06:06:00 PM 34.5056 -81.5861 326° Northwest  Level FlightAware Approximate
Fri 06:07:00 PM 34.5355 -81.6106 326° Northwest  Level FlightAware Approximate
Fri 06:08:00 PM 34.5654 -81.6352 326° Northwest  Level FlightAware Approximate
Fri 06:09:00 PM 34.5953 -81.6597 326° Northwest  Level FlightAware Approximate
Fri 06:10:00 PM 34.6252 -81.6843 326° Northwest  Level FlightAware Approximate
Fri 06:11:00 PM 34.6551 -81.7089 326° Northwest  Level FlightAware Approximate
Fri 06:12:00 PM 34.6850 -81.7335 326° Northwest  Level FlightAware Approximate
Fri 06:13:00 PM 34.7149 -81.7581 326° Northwest  Level FlightAware Approximate
Fri 06:14:00 PM 34.7447 -81.7828 326° Northwest  Level FlightAware Approximate
Fri 06:15:00 PM 34.7746 -81.8074 326° Northwest  Level FlightAware Approximate
Fri 06:16:00 PM 34.8044 -81.8321 326° Northwest  Level FlightAware Approximate
Fri 06:17:00 PM 34.8343 -81.8568 326° Northwest  Level FlightAware Approximate
Fri 06:18:00 PM 34.8641 -81.8815 326° Northwest  Level FlightAware Approximate
Fri 06:19:00 PM 34.8940 -81.9063 326° Northwest  Level FlightAware Approximate
Fri 06:20:00 PM 34.9238 -81.9310 326° Northwest  Level FlightAware Approximate
Fri 06:21:00 PM 34.9537 -81.9558 326° Northwest  Level FlightAware Approximate
Fri 06:22:00 PM 34.9835 -81.9806 326° Northwest  Level FlightAware Approximate
Fri 06:23:00 PM 35.0131 -82.0058 325° Northwest  Level Estimated
Fri 06:24:00 PM 35.0426 -82.0311 325° Northwest  Level FlightAware Approximate
Fri 06:24:09 PM 35.0189 -81.9919 325° Northwest 149 171 9,100  Level Atlanta Center
Fri 06:25:00 PM 35.0721 -82.0564 325° Northwest  Level FlightAware Approximate
Fri 06:26:00 PM 35.1017 -82.0818 325° Northwest  Level FlightAware Approximate
Fri 06:26:00 PM 35.0762 -82.0412 325° Northwest  Level Estimated
Fri 06:27:00 PM 35.1312 -82.1072 325° Northwest  Level FlightAware Approximate
Fri 06:28:00 PM 35.1607 -82.1326 325° Northwest  Level FlightAware Approximate
Fri 06:33:00 PM 35.2929 -82.2284 325° Northwest  Level Estimated
Fri 06:34:00 PM 35.3239 -82.2552 325° Northwest  Level Estimated
Fri 06:35:00 PM 35.3548 -82.2821 325° Northwest  Level Estimated
Fri 06:36:00 PM 35.3857 -82.3089 325° Northwest  Level Estimated
Fri 06:37:00 PM 35.4166 -82.3358 325° Northwest  Level Estimated
Fri 06:38:00 PM 35.4476 -82.3627 325° Northwest  Level Estimated
Fri 06:39:00 PM 35.4785 -82.3896 325° Northwest  Level Estimated
Fri 06:40:00 PM 35.5094 -82.4166 325° Northwest  Level Estimated
Fri 06:41:00 PM 35.5398 -82.4442 324° Northwest  Level FlightAware Approximate
Fri 06:42:00 PM 35.5703 -82.4719 324° Northwest  Level FlightAware Approximate
Fri 06:43:00 PM 35.6008 -82.4997 324° Northwest  Level FlightAware Approximate
Fri 06:44:00 PM 35.6313 -82.5274 323° Northwest  Level FlightAware Approximate
Fri 06:44:59 PM 35.6692 -82.5714 323° Northwest 140 161 10,100  Level Indianapolis Center
Fri 06:45:00 PM 35.6617 -82.5552 323° Northwest  Level FlightAware Approximate
Fri 06:46:00 PM 35.6922 -82.5830 323° Northwest  Level FlightAware Approximate
Fri 06:46:01 PM 35.7019 -82.6017 323° Northwest 142 163 10,100  Level Indianapolis Center
Fri 06:47:00 PM 35.7226 -82.6108 323° Northwest  Level FlightAware Approximate
Fri 06:47:03 PM 35.7450 -82.6344 328° Northwest 153 176 9,500  Level Indianapolis Center
Fri 06:48:00 PM 35.7531 -82.6386 323° Northwest  Level FlightAware Approximate
Fri 06:48:05 PM 35.7822 -82.6667 325° Northwest 162 186 9,200  Level Indianapolis Center
Fri 06:49:00 PM 35.7835 -82.6665 323° Northwest  Level FlightAware Approximate
Fri 06:49:07 PM 35.8181 -82.7000 323° Northwest 162 186 8,800  Level Indianapolis Center
Fri 06:50:00 PM 35.8139 -82.6943 323° Northwest  Level FlightAware Approximate
Fri 06:50:09 PM 35.8558 -82.7317 326° Northwest 163 188 8,400  Level Indianapolis Center
Fri 06:51:11 PM 35.8939 -82.7653 324° Northwest 166 191 8,100 -145 Descending Indianapolis Center
Fri 06:52:13 PM 35.9292 -82.7972 324° Northwest 161 185 8,100  Level Indianapolis Center
Fri 06:53:14 PM 35.9692 -82.8328 324° Northwest 154 177 8,100 -49 Level Indianapolis Center
Fri 06:54:16 PM 36.0053 -82.8631 326° Northwest 153 176 8,000  Descending Indianapolis Center
Fri 06:55:18 PM 36.0406 -82.8950 324° Northwest 156 180 8,100 48 Climbing Indianapolis Center
Fri 06:56:20 PM 36.0750 -82.9256 324° Northwest 154 177 8,100  Level Indianapolis Center
Fri 06:57:22 PM 36.1111 -82.9553 326° Northwest 155 178 8,100  Level Indianapolis Center
Fri 06:58:23 PM 36.1464 -82.9869 324° Northwest 155 178 8,100  Level Indianapolis Center
Fri 06:59:25 PM 36.1817 -83.0183 324° Northwest 155 178 8,100  Level Indianapolis Center
Fri 07:00:27 PM 36.2222 -83.0528 326° Northwest 152 175 8,100  Level Indianapolis Center
Fri 07:01:29 PM 36.2564 -83.0853 323° Northwest 152 175 8,100  Level Indianapolis Center
Fri 07:02:30 PM 36.2914 -83.1161 325° Northwest 154 177 8,100  Level Indianapolis Center
Fri 07:03:32 PM 36.3258 -83.1458 325° Northwest 152 175 8,100  Level Indianapolis Center
Fri 07:04:34 PM 36.3608 -83.1778 324° Northwest 154 177 8,100  Level Indianapolis Center
Fri 07:05:35 PM 36.3950 -83.2097 323° Northwest 154 177 8,100  Level Indianapolis Center
Fri 07:06:37 PM 36.4306 -83.2400 326° Northwest 154 177 8,100  Level Indianapolis Center
Fri 07:07:39 PM 36.4703 -83.2767 323° Northwest 153 176 8,100  Level Indianapolis Center
Fri 07:08:41 PM 36.5044 -83.3078 324° Northwest 152 175 8,100  Level Indianapolis Center
Fri 07:09:42 PM 36.5397 -83.3386 325° Northwest 153 176 8,100  Level Indianapolis Center
Fri 07:10:44 PM 36.5742 -83.3683 325° Northwest 151 174 8,100  Level Indianapolis Center
Fri 07:11:46 PM 36.6089 -83.3992 325° Northwest 151 174 8,100  Level Indianapolis Center
Fri 07:12:48 PM 36.6436 -83.4300 325° Northwest 153 176 8,100  Level Indianapolis Center
Fri 07:13:49 PM 36.6781 -83.4603 325° Northwest 152 175 8,100  Level Indianapolis Center
Fri 07:14:51 PM 36.7175 -83.4969 323° Northwest 152 175 8,100  Level Indianapolis Center
Fri 07:15:53 PM 36.7522 -83.5256 327° Northwest 150 173 8,100  Level Indianapolis Center
Fri 07:16:54 PM 36.7853 -83.5583 322° Northwest 150 173 8,100  Level Indianapolis Center
Fri 07:17:56 PM 36.8200 -83.5894 324° Northwest 152 175 8,100  Level Indianapolis Center
Fri 07:18:58 PM 36.8550 -83.6189 326° Northwest 152 175 8,100  Level Indianapolis Center
Fri 07:19:59 PM 36.8897 -83.6503 324° Northwest 152 175 8,100  Level Indianapolis Center
Fri 07:21:01 PM 36.9233 -83.6800 325° Northwest 150 173 8,100  Level Indianapolis Center
Fri 07:22:03 PM 36.9628 -83.7172 323° Northwest 151 174 8,100  Level Indianapolis Center
Fri 07:23:04 PM 36.9975 -83.7469 326° Northwest 151 174 8,100  Level Indianapolis Center
Fri 07:24:06 PM 37.0308 -83.7783 323° Northwest 150 173 8,100  Level Indianapolis Center
Fri 07:25:08 PM 37.0642 -83.8100 323° Northwest 150 173 8,100  Level Indianapolis Center
Fri 07:26:09 PM 37.0989 -83.8389 326° Northwest 150 173 8,100 -49 Level Indianapolis Center
Fri 07:27:11 PM 37.1319 -83.8708 322° Northwest 150 173 8,000 -242 Descending Indianapolis Center
Fri 07:28:13 PM 37.1658 -83.9022 324° Northwest 150 173 7,600 -439 Descending Indianapolis Center
Fri 07:29:14 PM 37.2031 -83.9336 326° Northwest 157 181 7,100 -537 Descending Indianapolis Center
Fri 07:30:16 PM 37.2444 -83.9739 322° Northwest 160 184 6,500 -532 Descending Indianapolis Center
Fri 07:31:18 PM 37.2781 -84.0092 320° Northwest 159 183 6,000 -439 Descending Indianapolis Center
Fri 07:32:19 PM 37.3169 -84.0383 329° Northwest 161 185 5,600 -439 Descending Indianapolis Center
Fri 07:33:21 PM 37.3531 -84.0747 321° Northwest 163 188 5,100 -435 Descending Indianapolis Center
Fri 07:34:23 PM 37.3892 -84.1069 325° Northwest 161 185 4,700 -390 Descending Indianapolis Center
Fri 07:35:24 PM 37.4236 -84.1411 322° Northwest 159 183 4,300 -390 Descending Indianapolis Center
Fri 07:36:26 PM 37.4603 -84.1736 325° Northwest 160 184 3,900 -439 Descending Indianapolis Center
Fri 07:37:27 PM 37.5019 -84.2125 323° Northwest 158 182 3,400 -390 Descending Indianapolis Center
Fri 07:38:29 PM 37.5319 -84.2394 325° Northwest 159 183 3,100 -290 Descending Indianapolis Center

Login

Don't have an account? Register now (free) for customized features, flight alerts, and more!